Time;durP1;ratioP1;P1;durP2;ratioP2;P2;SDS_P1;SDS_P2;PMS_P1;PMS_P2;Temp;Humidity;BMP_temperature;BMP_pressure;BME280_temperature;BME280_humidity;BME280_pressure;Samples;Min_cycle;Max_cycle;Signal;HPM_P1;HPM_P2
2023/04/11 00:00:18;;;;;;;14.80;8.50;;;;;;;6.68;100.00;101024.42;110431;1235;69452;-69
2023/04/11 00:03:07;;;;;;;12.80;8.60;;;;;;;6.64;100.00;101021.16;110450;1235;74994;-68
2023/04/11 00:05:36;;;;;;;11.40;8.20;;;;;;;6.61;100.00;101022.85;110464;1237;58184;-68
2023/04/11 00:08:05;;;;;;;10.80;7.70;;;;;;;6.67;100.00;101017.77;110449;1235;59823;-68
2023/04/11 00:10:34;;;;;;;12.70;7.80;;;;;;;6.63;100.00;101014.62;110452;1235;63911;-68
2023/04/11 00:13:03;;;;;;;11.10;6.60;;;;;;;6.75;100.00;101014.74;110348;1235;60875;-69
2023/04/11 00:15:32;;;;;;;11.60;7.00;;;;;;;6.79;100.00;101015.58;110397;1235;61845;-68
2023/04/11 00:18:01;;;;;;;12.40;7.70;;;;;;;6.75;100.00;101011.64;110414;1235;63753;-67
2023/04/11 00:20:30;;;;;;;10.20;6.80;;;;;;;6.78;100.00;101005.25;110401;1235;63077;-68
2023/04/11 00:22:59;;;;;;;11.80;7.70;;;;;;;6.74;100.00;101003.21;110165;1235;58308;-68
2023/04/11 00:25:28;;;;;;;9.40;6.60;;;;;;;6.74;100.00;101000.09;110305;1235;62883;-68
2023/04/11 00:27:57;;;;;;;11.40;7.70;;;;;;;6.82;100.00;100992.58;110398;1235;72107;-68
2023/04/11 00:30:26;;;;;;;10.10;7.10;;;;;;;6.75;100.00;100992.56;110317;1235;61346;-69
2023/04/11 00:32:55;;;;;;;9.20;6.40;;;;;;;6.75;100.00;100991.02;110143;1235;63820;-69
2023/04/11 00:35:24;;;;;;;11.10;7.20;;;;;;;6.78;100.00;100991.54;110430;1236;58236;-69
2023/04/11 00:37:54;;;;;;;10.80;7.50;;;;;;;6.78;100.00;100990.50;110406;1238;58116;-69
2023/04/11 00:40:24;;;;;;;9.70;7.10;;;;;;;6.66;100.00;100989.38;110197;1239;74966;-68
2023/04/11 00:42:53;;;;;;;10.40;7.30;;;;;;;6.71;100.00;100986.34;110187;1235;62048;-69
2023/04/11 00:45:22;;;;;;;10.10;7.10;;;;;;;6.74;100.00;100985.52;110470;1235;59971;-68
2023/04/11 00:47:52;;;;;;;12.70;8.90;;;;;;;6.74;100.00;100986.40;110350;1235;72992;-68
2023/04/11 00:50:23;;;;;;;10.90;8.10;;;;;;;6.73;100.00;100987.84;110284;1238;57940;-68
2023/04/11 00:52:55;;;;;;;12.00;8.50;;;;;;;6.77;100.00;100985.73;110404;1235;61134;-68
2023/04/11 00:55:25;;;;;;;11.20;8.20;;;;;;;6.81;100.00;100984.97;110354;1235;64339;-68
2023/04/11 00:57:54;;;;;;;11.40;8.40;;;;;;;6.86;100.00;100982.98;110067;1235;70558;-68
2023/04/11 01:00:23;;;;;;;10.20;7.10;;;;;;;6.87;100.00;100986.75;110240;1234;61815;-68
2023/04/11 01:02:53;;;;;;;12.90;7.90;;;;;;;6.88;100.00;100983.91;110016;1235;63119;-68
2023/04/11 01:05:22;;;;;;;12.20;7.90;;;;;;;6.92;100.00;100971.10;110076;1239;58262;-69
2023/04/11 01:07:53;;;;;;;12.20;7.50;;;;;;;6.93;100.00;100966.01;110210;1235;58254;-69
2023/04/11 01:10:24;;;;;;;11.70;7.80;;;;;;;7.04;100.00;100964.01;110196;1235;63273;-69
2023/04/11 01:12:54;;;;;;;13.00;7.90;;;;;;;6.98;100.00;100961.07;110080;1235;61784;-69
2023/04/11 01:15:22;;;;;;;12.50;8.20;;;;;;;6.85;100.00;100960.02;109886;1235;60401;-68
2023/04/11 01:17:54;;;;;;;11.40;8.40;;;;;;;6.80;100.00;100957.87;110114;1235;62530;-68
2023/04/11 01:20:25;;;;;;;12.80;8.60;;;;;;;6.80;100.00;100954.08;110168;1237;62888;-69
2023/04/11 01:22:57;;;;;;;12.20;8.50;;;;;;;6.78;100.00;100950.55;110079;1235;62209;-69
2023/04/11 01:25:26;;;;;;;12.40;9.30;;;;;;;6.78;100.00;100947.60;110119;1235;64174;-70
2023/04/11 01:27:55;;;;;;;13.30;8.90;;;;;;;6.77;100.00;100949.73;110084;1234;61863;-69
2023/04/11 01:30:24;;;;;;;10.80;8.40;;;;;;;6.72;100.00;100956.19;110127;1235;59486;-69
2023/04/11 01:32:53;;;;;;;12.90;8.50;;;;;;;6.67;100.00;100963.58;110132;1235;63345;-68
2023/04/11 01:35:22;;;;;;;13.50;9.10;;;;;;;6.66;100.00;100959.98;110192;1237;62983;-68
2023/04/11 01:37:51;;;;;;;10.70;8.00;;;;;;;6.63;100.00;100958.38;110137;1238;61578;-68
2023/04/11 01:40:22;;;;;;;14.70;9.10;;;;;;;6.59;100.00;100953.08;109971;1238;74102;-68
2023/04/11 01:42:53;;;;;;;13.50;8.20;;;;;;;6.53;100.00;100947.00;110134;1235;72695;-69
2023/04/11 01:45:22;;;;;;;14.30;8.90;;;;;;;6.51;100.00;100943.29;110139;1235;70860;-68
2023/04/11 01:47:53;;;;;;;14.50;8.50;;;;;;;6.55;100.00;100934.95;109897;1235;62829;-68
2023/04/11 01:50:23;;;;;;;14.40;9.30;;;;;;;6.56;100.00;100938.70;110181;1237;57836;-69
2023/04/11 01:52:52;;;;;;;12.50;8.50;;;;;;;6.53;100.00;100941.45;109896;1235;61218;-69
2023/04/11 01:55:20;;;;;;;12.30;8.50;;;;;;;6.54;100.00;100938.80;110005;1234;74817;-69
2023/04/11 01:57:49;;;;;;;14.50;9.40;;;;;;;6.45;100.00;100941.16;110401;1235;61434;-68
2023/04/11 02:00:19;;;;;;;12.80;8.90;;;;;;;6.44;100.00;100940.19;110248;1235;59842;-68
2023/04/11 02:02:47;;;;;;;14.20;8.00;;;;;;;6.48;100.00;100934.77;109951;1235;73794;-68
2023/04/11 02:05:16;;;;;;;13.20;8.60;;;;;;;6.45;100.00;100936.19;110232;1237;63508;-69
2023/04/11 02:07:45;;;;;;;12.50;8.90;;;;;;;6.43;100.00;100933.84;110203;1235;58293;-67
2023/04/11 02:10:18;;;;;;;14.40;9.50;;;;;;;6.45;100.00;100930.95;110364;1234;74320;-69
2023/04/11 02:12:46;;;;;;;14.60;9.70;;;;;;;6.43;100.00;100929.88;110322;1235;71909;-68
2023/04/11 02:15:15;;;;;;;16.10;9.20;;;;;;;6.45;100.00;100928.88;110247;1235;59681;-68
2023/04/11 02:17:44;;;;;;;15.20;10.60;;;;;;;6.51;100.00;100920.80;110159;1235;63213;-67
2023/04/11 02:20:14;;;;;;;16.40;9.20;;;;;;;6.55;100.00;100911.73;110224;1237;61166;-68
2023/04/11 02:22:42;;;;;;;13.90;9.30;;;;;;;6.59;100.00;100909.30;109937;1237;60905;-67
2023/04/11 02:25:11;;;;;;;16.20;10.00;;;;;;;6.52;100.00;100909.82;110375;1235;64286;-70
2023/04/11 02:27:40;;;;;;;13.90;9.70;;;;;;;6.48;100.00;100906.94;110305;1235;60845;-68
2023/04/11 02:30:09;;;;;;;12.70;9.40;;;;;;;6.48;100.00;100903.29;110305;1236;69724;-69
2023/04/11 02:32:38;;;;;;;15.40;9.10;;;;;;;6.45;100.00;100903.29;110280;1235;73970;-69
2023/04/11 02:35:07;;;;;;;13.90;8.50;;;;;;;6.50;100.00;100901.99;110378;1236;58230;-69
2023/04/11 02:37:36;;;;;;;11.00;7.50;;;;;;;6.62;100.00;100901.70;110289;1235;58166;-69
2023/04/11 02:40:06;;;;;;;12.70;8.20;;;;;;;6.67;100.00;100896.75;110356;1235;62807;-68
2023/04/11 02:42:41;;;;;;;;;;;;;;;6.68;100.00;100890.84;110157;1235;61651;-68
2023/04/11 02:45:11;;;;;;;13.40;8.70;;;;;;;6.58;100.00;100886.86;110358;1235;70533;-69
2023/04/11 02:47:40;;;;;;;13.40;8.80;;;;;;;6.67;100.00;100882.05;110340;1235;73614;-68
2023/04/11 02:50:09;;;;;;;14.70;8.20;;;;;;;6.76;100.00;100883.28;110134;1239;62930;-69
2023/04/11 02:52:44;;;;;;;12.70;8.00;;;;;;;6.78;100.00;100880.59;110225;1235;58275;-68
2023/04/11 02:55:15;;;;;;;12.00;8.50;;;;;;;6.75;100.00;100873.48;110099;1235;62917;-68
2023/04/11 02:57:44;;;;;;;14.20;8.80;;;;;;;6.80;100.00;100873.74;110304;1237;71081;-68
2023/04/11 03:00:14;;;;;;;13.70;9.10;;;;;;;6.73;100.00;100868.55;110188;1238;70387;-68
2023/04/11 03:02:49;;;;;;;12.00;6.60;;;;;;;6.71;100.00;100867.11;110062;1235;63935;-68
2023/04/11 03:05:21;;;;;;;13.00;8.60;;;;;;;6.70;100.00;100865.27;110269;1237;58250;-68
2023/04/11 03:07:52;;;;;;;12.30;8.50;;;;;;;6.66;100.00;100864.12;110110;1239;57802;-68
2023/04/11 03:10:22;;;;;;;13.60;8.50;;;;;;;6.67;100.00;100858.54;110243;1235;71658;-69
2023/04/11 03:12:51;;;;;;;13.60;8.20;;;;;;;6.62;100.00;100854.95;110303;1235;71635;-68
2023/04/11 03:15:19;;;;;;;13.70;9.30;;;;;;;6.57;100.00;100856.77;110207;1235;70775;-69
2023/04/11 03:17:48;;;;;;;15.90;10.10;;;;;;;6.52;100.00;100850.98;110310;1235;64402;-68
2023/04/11 03:20:19;;;;;;;13.70;8.60;;;;;;;6.53;100.00;100852.66;110341;1236;57750;-68
2023/04/11 03:22:50;;;;;;;13.50;9.30;;;;;;;6.55;100.00;100862.42;110314;1235;58404;-68
2023/04/11 03:25:20;;;;;;;20.10;11.90;;;;;;;6.52;100.00;100861.54;110357;1235;63767;-68
2023/04/11 03:27:49;;;;;;;16.80;9.40;;;;;;;6.42;100.00;100848.40;110323;1235;72100;-67
2023/04/11 03:30:19;;;;;;;20.20;10.60;;;;;;;6.42;100.00;100841.68;110296;1235;60526;-67
2023/04/11 03:32:48;;;;;;;16.50;9.40;;;;;;;6.46;100.00;100845.96;110354;1235;63277;-68
2023/04/11 03:35:19;;;;;;;16.30;9.50;;;;;;;6.47;100.00;100845.03;110179;1238;57815;-70
2023/04/11 03:37:49;;;;;;;15.90;10.50;;;;;;;6.44;100.00;100842.11;110198;1239;58278;-69
2023/04/11 03:40:18;;;;;;;14.30;9.40;;;;;;;6.36;100.00;100842.84;110357;1235;63701;-69
2023/04/11 03:42:51;;;;;;;;;;;;;;;6.40;100.00;100841.97;110241;1239;61554;-68
2023/04/11 03:45:23;;;;;;;15.30;10.40;;;;;;;6.40;100.00;100841.27;110309;1235;59977;-68
2023/04/11 03:47:52;;;;;;;16.50;10.80;;;;;;;6.33;100.00;100838.17;110389;1237;62447;-68
2023/04/11 03:50:23;;;;;;;16.00;9.70;;;;;;;6.31;100.00;100839.33;110116;1239;62984;-68
2023/04/11 03:52:56;;;;;;;17.80;10.20;;;;;;;6.31;100.00;100843.11;110299;1235;61511;-68
2023/04/11 03:55:25;;;;;;;16.90;10.90;;;;;;;6.36;100.00;100842.02;110344;1235;74592;-68
2023/04/11 03:57:55;;;;;;;19.40;10.00;;;;;;;6.39;100.00;100842.73;110285;1235;72671;-68
2023/04/11 04:00:26;;;;;;;15.10;8.80;;;;;;;6.39;100.00;100842.54;110348;1235;70365;-68
2023/04/11 04:03:00;;;;;;;19.90;11.00;;;;;;;6.35;100.00;100840.31;110042;1235;74196;-68
2023/04/11 04:05:29;;;;;;;14.70;10.30;;;;;;;6.32;100.00;100839.60;110257;1238;63252;-68
2023/04/11 04:07:58;;;;;;;19.10;10.20;;;;;;;6.27;100.00;100839.16;110307;1235;61834;-68
2023/04/11 04:10:41;;;;;;;15.80;10.10;;;;;;;6.25;100.00;100837.89;110344;1235;74962;-67
2023/04/11 04:13:10;;;;;;;17.90;9.70;;;;;;;6.24;100.00;100839.02;110349;1235;72572;-68
2023/04/11 04:15:42;;;;;;;21.20;11.10;;;;;;;6.24;100.00;100832.58;110281;1235;59966;-68
2023/04/11 04:18:11;;;;;;;19.80;11.00;;;;;;;6.21;100.00;100829.32;110089;1235;74021;-68
2023/04/11 04:20:46;;;;;;;16.00;11.00;;;;;;;6.31;100.00;100831.88;110216;1236;63527;-68
2023/04/11 04:23:16;;;;;;;14.60;8.60;;;;;;;6.36;100.00;100831.11;110263;1235;60330;-70
2023/04/11 04:26:00;;;;;;;16.20;10.90;;;;;;;6.49;100.00;100828.14;110302;1238;63408;-69
2023/04/11 04:28:31;;;;;;;17.80;10.20;;;;;;;6.40;100.00;100833.80;110301;1235;62112;-69
2023/04/11 04:31:02;;;;;;;18.10;10.20;;;;;;;6.38;100.00;100832.39;110297;1238;59150;-69
2023/04/11 04:33:51;;;;;;;17.90;9.90;;;;;;;6.41;100.00;100830.13;110171;1235;63267;-70
2023/04/11 04:36:23;;;;;;;16.70;10.30;;;;;;;6.47;100.00;100824.13;110404;1237;62113;-69
2023/04/11 04:38:53;;;;;;;16.00;11.00;;;;;;;6.52;100.00;100815.67;110167;1235;57898;-69
2023/04/11 04:41:23;;;;;;;16.00;10.50;;;;;;;6.62;100.00;100817.23;110340;1235;74847;-69
2023/04/11 04:43:57;;;;;;;16.70;10.40;;;;;;;6.65;100.00;100820.32;110310;1235;63235;-69
2023/04/11 04:47:02;;;;;;;17.30;10.80;;;;;;;6.75;100.00;100816.71;110306;1235;70443;-69
2023/04/11 04:49:32;;;;;;;15.70;9.30;;;;;;;6.77;100.00;100807.28;110311;1238;73021;-70
2023/04/11 04:52:01;;;;;;;20.10;10.70;;;;;;;6.92;100.00;100806.23;110268;1237;62684;-69
2023/04/11 04:54:30;;;;;;;14.80;8.90;;;;;;;7.00;100.00;100807.53;110305;1235;57739;-68
2023/04/11 04:57:00;;;;;;;16.50;9.90;;;;;;;7.05;100.00;100807.45;110289;1235;74374;-68
2023/04/11 04:59:29;;;;;;;14.60;7.60;;;;;;;7.04;100.00;100806.98;110381;1235;73210;-70
2023/04/11 05:02:03;;;;;;;17.30;9.70;;;;;;;7.03;100.00;100808.38;110280;1235;60290;-70
2023/04/11 05:04:33;;;;;;;18.50;10.30;;;;;;;7.01;100.00;100813.52;110274;1238;63456;-70
2023/04/11 05:07:03;;;;;;;19.40;11.10;;;;;;;6.99;100.00;100813.46;110073;1238;62968;-71
2023/04/11 05:09:32;;;;;;;16.80;10.20;;;;;;;7.00;100.00;100806.15;109920;1235;60850;-71
2023/04/11 05:12:25;;;;;;;16.00;8.90;;;;;;;7.12;100.00;100801.85;110140;1238;65042;-70
2023/04/11 05:14:58;;;;;;;17.00;10.60;;;;;;;7.29;100.00;100800.52;110203;1237;69967;-72
2023/04/11 05:17:28;;;;;;;16.90;10.20;;;;;;;7.31;100.00;100801.43;110204;1238;60470;-71
2023/04/11 05:19:57;;;;;;;14.60;10.00;;;;;;;7.40;100.00;100801.48;110072;1236;63224;-73
2023/04/11 05:22:26;;;;;;;17.50;10.50;;;;;;;7.58;100.00;100800.23;110279;1238;62193;-71
2023/04/11 05:24:56;;;;;;;18.30;10.00;;;;;;;7.71;100.00;100800.73;110192;1238;61079;-71
2023/04/11 05:27:25;;;;;;;16.90;10.20;;;;;;;7.80;100.00;100795.29;110342;1235;74866;-71
2023/04/11 05:29:54;;;;;;;16.10;10.90;;;;;;;8.01;100.00;100791.64;110187;1239;61315;-70
2023/04/11 05:32:23;;;;;;;16.60;10.20;;;;;;;8.18;100.00;100781.20;110235;1237;59978;-69
2023/04/11 05:34:54;;;;;;;18.70;11.50;;;;;;;8.38;100.00;100780.71;110231;1239;73574;-71
2023/04/11 05:37:47;;;;;;;16.20;9.20;;;;;;;8.44;100.00;100769.55;110211;1235;62661;-69
2023/04/11 05:40:17;;;;;;;18.50;11.00;;;;;;;8.53;100.00;100775.46;110218;1238;58255;-70
2023/04/11 05:42:45;;;;;;;19.00;10.80;;;;;;;8.60;100.00;100774.14;110270;1235;74574;-71
2023/04/11 05:45:14;;;;;;;19.90;11.30;;;;;;;8.71;100.00;100773.92;110191;1239;61209;-77
2023/04/11 05:47:43;;;;;;;19.80;11.30;;;;;;;8.75;100.00;100771.23;110247;1239;59947;-74
2023/04/11 05:50:13;;;;;;;16.60;10.30;;;;;;;8.58;100.00;100770.27;110190;1239;63922;-75
2023/04/11 05:52:42;;;;;;;14.30;8.30;;;;;;;8.79;100.00;100767.88;110283;1238;62732;-76
2023/04/11 05:55:11;;;;;;;17.60;9.80;;;;;;;8.93;100.00;100762.27;110253;1238;58095;-77
2023/04/11 05:57:40;;;;;;;15.60;11.00;;;;;;;9.04;100.00;100760.02;110339;1239;63708;-74
2023/04/11 06:00:12;;;;;;;16.00;9.60;;;;;;;9.02;100.00;100764.01;110302;1235;72085;-74
2023/04/11 06:02:41;;;;;;;16.20;10.50;;;;;;;9.11;100.00;100755.06;110197;1235;69624;-73
2023/04/11 06:05:10;;;;;;;15.40;11.20;;;;;;;9.25;100.00;100754.09;110038;1239;63420;-73
2023/04/11 06:07:40;;;;;;;16.00;10.60;;;;;;;9.33;99.83;100744.68;109969;1238;61224;-72
2023/04/11 06:10:09;;;;;;;19.20;11.70;;;;;;;9.40;99.91;100740.05;110331;1235;61043;-72
2023/04/11 06:12:38;;;;;;;16.50;11.00;;;;;;;9.42;99.96;100734.21;110363;1237;64228;-74
2023/04/11 06:15:10;;;;;;;18.00;11.40;;;;;;;9.49;99.70;100722.26;110349;1235;61651;-74
2023/04/11 06:17:39;;;;;;;22.00;11.10;;;;;;;9.62;99.83;100728.33;110234;1238;60045;-72
2023/04/11 06:20:09;;;;;;;18.90;10.40;;;;;;;9.72;99.53;100728.35;110343;1238;62484;-72
2023/04/11 06:22:39;;;;;;;19.00;11.20;;;;;;;9.71;98.31;100730.86;109982;1235;62173;-73
2023/04/11 06:25:09;;;;;;;18.60;12.10;;;;;;;9.84;97.54;100728.04;110144;1238;59453;-72
2023/04/11 06:27:38;;;;;;;21.90;12.30;;;;;;;9.96;96.17;100722.17;110310;1235;75010;-74
2023/04/11 06:30:08;;;;;;;18.50;11.40;;;;;;;9.94;96.12;100725.28;110113;1243;63813;-72
2023/04/11 06:32:36;;;;;;;16.00;11.30;;;;;;;9.95;95.33;100719.47;110192;1235;69677;-72
2023/04/11 06:35:06;;;;;;;19.50;11.10;;;;;;;9.87;96.04;100722.59;110148;1239;63469;-72
2023/04/11 06:37:34;;;;;;;17.40;11.70;;;;;;;9.94;95.50;100722.86;110058;1239;62895;-72
2023/04/11 06:40:06;;;;;;;16.70;11.10;;;;;;;10.01;95.27;100720.59;110138;1238;58275;-74
2023/04/11 06:42:35;;;;;;;14.80;9.90;;;;;;;10.13;94.50;100713.67;110064;1238;65594;-72
2023/04/11 06:45:05;;;;;;;18.50;11.10;;;;;;;10.19;94.64;100715.50;110112;1239;61647;-73
2023/04/11 06:47:34;;;;;;;15.00;9.80;;;;;;;10.19;93.52;100719.72;110255;1235;69620;-73
2023/04/11 06:50:03;;;;;;;15.50;10.00;;;;;;;10.22;92.82;100716.84;110253;1237;74140;-73
2023/04/11 06:52:32;;;;;;;15.10;9.20;;;;;;;10.34;92.77;100716.20;110182;1239;58268;-73
2023/04/11 06:55:01;;;;;;;17.10;11.50;;;;;;;10.41;92.58;100715.05;110165;1235;57644;-74
2023/04/11 06:57:30;;;;;;;17.30;10.60;;;;;;;10.42;92.83;100715.11;110153;1235;74314;-73
2023/04/11 06:59:58;;;;;;;16.60;11.20;;;;;;;10.32;93.41;100712.84;110156;1235;72826;-75
2023/04/11 07:02:27;;;;;;;17.70;10.70;;;;;;;10.22;94.06;100711.14;110122;1239;60344;-73
2023/04/11 07:04:56;;;;;;;20.30;11.20;;;;;;;10.33;93.84;100704.95;110129;1235;73042;-75
2023/04/11 07:07:26;;;;;;;15.10;11.10;;;;;;;10.40;93.86;100699.27;110170;1238;58407;-74
2023/04/11 07:09:55;;;;;;;15.80;11.20;;;;;;;10.49;92.87;100699.16;110272;1235;61539;-72
2023/04/11 07:12:23;;;;;;;17.00;10.90;;;;;;;10.48;92.15;100687.02;110319;1235;74101;-74
2023/04/11 07:14:52;;;;;;;15.30;11.00;;;;;;;10.49;92.25;100695.96;110349;1237;62220;-76
2023/04/11 07:17:21;;;;;;;16.00;11.60;;;;;;;10.52;92.36;100696.48;110436;1235;61357;-73
2023/04/11 07:19:50;;;;;;;15.30;10.40;;;;;;;10.62;91.77;100691.73;110409;1235;62494;-74
2023/04/11 07:22:19;;;;;;;17.50;12.20;;;;;;;10.71;90.72;100689.34;110327;1238;58389;-73
2023/04/11 07:24:54;;;;;;;14.60;9.90;;;;;;;10.76;89.87;100682.67;110091;1235;60432;-73
2023/04/11 07:27:23;;;;;;;15.60;9.80;;;;;;;10.76;89.24;100678.56;110225;1235;75116;-72
2023/04/11 07:29:52;;;;;;;15.80;11.10;;;;;;;10.76;89.26;100676.26;110312;1235;73019;-72
2023/04/11 07:32:20;;;;;;;15.30;9.40;;;;;;;10.73;90.13;100674.35;110274;1235;70819;-74
2023/04/11 07:34:49;;;;;;;17.70;10.70;;;;;;;10.67;90.33;100669.41;110218;1235;63209;-73
2023/04/11 07:37:18;;;;;;;15.70;10.20;;;;;;;10.77;89.68;100662.10;110215;1238;57810;-73
2023/04/11 07:39:48;;;;;;;16.50;10.30;;;;;;;10.82;89.02;100655.39;110262;1235;58313;-74
2023/04/11 07:42:16;;;;;;;17.30;10.70;;;;;;;10.90;88.58;100652.58;110176;1235;73908;-72
2023/04/11 07:44:45;;;;;;;16.20;11.40;;;;;;;10.98;88.51;100651.25;110062;1235;62121;-73
2023/04/11 07:47:14;;;;;;;14.70;10.90;;;;;;;11.07;88.35;100651.60;110200;1238;59065;-73
2023/04/11 07:49:43;;;;;;;19.70;12.00;;;;;;;11.06;88.27;100658.48;110288;1235;63318;-75
2023/04/11 07:52:13;;;;;;;15.20;10.60;;;;;;;11.19;87.67;100647.06;110239;1235;60329;-73
2023/04/11 07:54:41;;;;;;;13.80;9.90;;;;;;;11.14;87.59;100649.23;110161;1235;60643;-72
2023/04/11 07:57:10;;;;;;;16.50;11.80;;;;;;;11.20;87.47;100645.09;110269;1235;65614;-73
2023/04/11 07:59:39;;;;;;;16.10;11.70;;;;;;;11.08;88.21;100649.88;110268;1235;61545;-72
2023/04/11 08:02:08;;;;;;;14.60;10.20;;;;;;;10.88;89.59;100649.40;110266;1235;60139;-73
2023/04/11 08:04:38;;;;;;;17.10;11.90;;;;;;;10.87;89.83;100652.11;110278;1235;62738;-74
2023/04/11 08:07:06;;;;;;;15.50;9.80;;;;;;;10.81;90.45;100652.36;110303;1235;62865;-74
2023/04/11 08:09:35;;;;;;;15.00;11.10;;;;;;;10.81;90.48;100654.42;110189;1238;57885;-73
2023/04/11 08:12:05;;;;;;;13.60;9.60;;;;;;;10.86;90.39;100658.60;110338;1235;64407;-72
2023/04/11 08:14:34;;;;;;;16.10;11.60;;;;;;;10.90;90.51;100657.61;110183;1235;71363;-72
2023/04/11 08:17:03;;;;;;;20.00;12.60;;;;;;;10.84;91.62;100651.59;110255;1235;61567;-73
2023/04/11 08:19:45;;;;;;;15.50;12.00;;;;;;;10.84;92.61;100641.84;110269;1238;72578;-73
2023/04/11 08:22:14;;;;;;;20.80;12.30;;;;;;;10.83;93.92;100638.80;110302;1238;62610;-73
2023/04/11 08:24:42;;;;;;;18.20;11.80;;;;;;;10.84;94.51;100631.74;110123;1235;61640;-74
2023/04/11 08:27:11;;;;;;;16.20;12.10;;;;;;;10.92;94.51;100618.10;110268;1235;64328;-74
2023/04/11 08:29:40;;;;;;;15.10;10.00;;;;;;;10.95;95.33;100606.59;110159;1235;61476;-73
2023/04/11 08:32:09;;;;;;;19.90;13.10;;;;;;;10.79;96.68;100597.46;110184;1235;69828;-72
2023/04/11 08:34:37;;;;;;;20.20;13.40;;;;;;;10.85;96.84;100590.60;110211;1238;74458;-74
2023/04/11 08:37:06;;;;;;;17.70;11.40;;;;;;;10.82;96.86;100585.02;110238;1236;58283;-75
2023/04/11 08:39:35;;;;;;;17.60;12.20;;;;;;;10.86;96.43;100578.63;110238;1238;58319;-74
2023/04/11 08:42:04;;;;;;;19.10;13.60;;;;;;;10.94;95.58;100574.56;110289;1235;72494;-73
2023/04/11 08:44:35;;;;;;;20.30;11.70;;;;;;;11.05;94.58;100573.52;110305;1235;62233;-74
2023/04/11 08:47:05;;;;;;;19.10;12.60;;;;;;;11.05;94.20;100571.83;110238;1238;68640;-71
2023/04/11 08:49:34;;;;;;;20.20;12.70;;;;;;;11.18;93.69;100574.79;110202;1238;74613;-75
2023/04/11 08:52:03;;;;;;;18.90;12.80;;;;;;;11.36;92.60;100568.55;110257;1235;63247;-76
2023/04/11 08:54:31;;;;;;;19.20;11.70;;;;;;;11.37;91.86;100565.27;110178;1235;61714;-73
2023/04/11 08:57:00;;;;;;;18.20;12.50;;;;;;;11.49;91.05;100564.08;110295;1235;65354;-71
2023/04/11 08:59:32;;;;;;;17.20;12.60;;;;;;;11.55;89.99;100549.94;110260;1235;71665;-70
2023/04/11 09:02:08;;;;;;;14.30;10.30;;;;;;;11.69;89.31;100557.18;110289;1235;71168;-73
2023/04/11 09:04:43;;;;;;;16.20;11.10;;;;;;;11.65;88.44;100547.05;110031;1235;72536;-73
2023/04/11 09:07:15;;;;;;;15.50;12.10;;;;;;;11.78;88.24;100544.86;109932;1240;58312;-76
2023/04/11 09:09:45;;;;;;;17.20;11.70;;;;;;;11.90;87.81;100548.56;109661;1235;340046;-74
2023/04/11 09:12:14;;;;;;;20.60;13.00;;;;;;;12.07;87.42;100545.27;110108;1235;75040;-72
2023/04/11 09:14:43;;;;;;;17.90;12.20;;;;;;;12.19;85.93;100541.33;110163;1235;62125;-72
2023/04/11 09:17:12;;;;;;;19.80;11.10;;;;;;;12.24;84.81;100537.96;110111;1235;60018;-73
2023/04/11 09:19:41;;;;;;;19.50;11.70;;;;;;;12.37;84.43;100539.52;110040;1235;63272;-72
2023/04/11 09:22:12;;;;;;;19.00;12.40;;;;;;;12.38;84.55;100531.56;110089;1238;58350;-74
2023/04/11 09:24:41;;;;;;;14.70;9.40;;;;;;;12.29;85.57;100532.84;110111;1236;57736;-73
2023/04/11 09:27:18;;;;;;;14.40;10.20;;;;;;;12.37;80.95;100532.73;110191;1235;63077;-74
2023/04/11 09:29:48;;;;;;;11.00;7.90;;;;;;;12.23;80.31;100537.02;110154;1235;61658;-74
2023/04/11 09:32:29;;;;;;;12.20;8.00;;;;;;;12.19;79.56;100541.02;110082;1235;70392;-76
2023/04/11 09:35:19;;;;;;;11.50;8.10;;;;;;;12.19;80.63;100536.48;110275;1235;73147;-73
2023/04/11 09:37:57;;;;;;;14.50;7.40;;;;;;;12.12;81.22;100536.31;110357;1238;58270;-75
2023/04/11 09:40:30;;;;;;;12.60;8.30;;;;;;;12.09;82.06;100539.05;110123;1235;61147;-76
2023/04/11 09:43:02;;;;;;;12.30;7.80;;;;;;;11.91;84.29;100538.17;110282;1238;63464;-71
2023/04/11 09:45:31;;;;;;;13.20;8.00;;;;;;;11.85;85.56;100537.83;110296;1235;61645;-71
2023/04/11 09:48:16;;;;;;;10.60;7.10;;;;;;;11.85;85.42;100533.79;110127;1235;60080;-68
2023/04/11 09:50:48;;;;;;;18.30;7.80;;;;;;;11.72;85.60;100529.96;109824;1235;73000;-69
2023/04/11 09:53:18;;;;;;;12.70;8.10;;;;;;;11.31;88.23;100529.49;109796;1240;57744;-68
2023/04/11 09:55:48;;;;;;;14.20;8.40;;;;;;;11.13;90.31;100525.17;110115;1235;60382;-68
2023/04/11 09:58:20;;;;;;;14.10;9.10;;;;;;;11.18;89.01;100523.02;110209;1235;64460;-70
2023/04/11 10:00:49;;;;;;;13.60;8.00;;;;;;;11.07;90.49;100515.00;110183;1235;72141;-68
2023/04/11 10:03:19;;;;;;;14.10;8.40;;;;;;;10.92;92.10;100512.13;110139;1235;70810;-72
2023/04/11 10:05:52;;;;;;;12.30;8.20;;;;;;;10.78;92.98;100514.08;110166;1235;74802;-72
2023/04/11 10:08:31;;;;;;;11.50;8.30;;;;;;;10.53;94.91;100501.40;109890;1235;62486;-73
2023/04/11 10:11:02;;;;;;;10.70;7.90;;;;;;;10.44;95.84;100506.08;110152;1235;58265;-72
2023/04/11 10:13:42;;;;;;;9.40;7.10;;;;;;;10.40;95.13;100494.91;109761;1235;64044;-70
2023/04/11 10:16:17;;;;;;;11.50;7.00;;;;;;;10.26;97.17;100488.74;110053;1235;60897;-70
2023/04/11 10:18:52;;;;;;;12.50;6.90;;;;;;;10.10;99.93;100493.27;109883;1235;59878;-74
2023/04/11 10:21:31;;;;;;;9.50;6.80;;;;;;;9.99;100.00;100495.29;110013;1237;73773;-72
2023/04/11 10:24:17;;;;;;;9.50;6.00;;;;;;;9.96;100.00;100500.35;110058;1236;57784;-72
2023/04/11 10:27:03;;;;;;;9.50;6.60;;;;;;;9.90;100.00;100495.08;109893;1235;60586;-71
2023/04/11 10:29:32;;;;;;;9.40;6.30;;;;;;;9.74;100.00;100489.07;110120;1235;64183;-73
2023/04/11 10:32:12;;;;;;;10.70;7.10;;;;;;;9.68;100.00;100486.41;110157;1235;60990;-71
2023/04/11 10:35:03;;;;;;;10.20;7.30;;;;;;;9.59;100.00;100485.14;110037;1235;60025;-72
2023/04/11 10:37:33;;;;;;;10.20;7.80;;;;;;;9.48;100.00;100485.60;110091;1235;73636;-71
2023/04/11 10:40:08;;;;;;;11.00;7.40;;;;;;;9.41;100.00;100481.89;110010;1235;58162;-70
2023/04/11 10:42:44;;;;;;;10.40;7.00;;;;;;;9.37;100.00;100478.36;110238;1235;61165;-73
2023/04/11 10:45:29;;;;;;;11.00;8.10;;;;;;;9.36;100.00;100476.52;110145;1235;63872;-72
2023/04/11 10:48:12;;;;;;;12.60;8.30;;;;;;;9.40;100.00;100469.46;110295;1238;60867;-72
2023/04/11 10:50:45;;;;;;;11.60;8.30;;;;;;;9.40;100.00;100467.76;110300;1235;70255;-72
2023/04/11 10:53:35;;;;;;;11.60;8.80;;;;;;;9.36;100.00;100464.22;110187;1235;74397;-72
2023/04/11 10:56:04;;;;;;;16.00;9.60;;;;;;;9.33;100.00;100458.48;110004;1237;57802;-70
2023/04/11 10:58:38;;;;;;;16.20;9.80;;;;;;;9.34;100.00;100460.48;110184;1235;58392;-72
2023/04/11 11:01:15;;;;;;;14.70;10.30;;;;;;;9.37;100.00;100457.02;110177;1235;63792;-69
2023/04/11 11:03:59;;;;;;;15.50;9.80;;;;;;;9.43;100.00;100453.62;110194;1235;61643;-71
2023/04/11 11:06:33;;;;;;;15.10;9.90;;;;;;;9.44;100.00;100453.20;110126;1235;69987;-72
2023/04/11 11:09:25;;;;;;;14.10;10.00;;;;;;;9.38;100.00;100454.12;110098;1234;62905;-75
2023/04/11 11:12:11;;;;;;;;;;;;;;;9.39;100.00;100451.08;110302;1236;61092;-71
2023/04/11 11:14:42;;;;;;;18.70;10.80;;;;;;;9.31;100.00;100446.46;110342;1235;60209;-72
2023/04/11 11:17:15;;;;;;;15.20;10.40;;;;;;;9.36;100.00;100442.61;110048;1235;74150;-74
2023/04/11 11:19:46;;;;;;;20.80;13.70;;;;;;;9.36;100.00;100440.03;110054;1235;72663;-69
2023/04/11 11:22:24;;;;;;;16.20;10.90;;;;;;;9.42;100.00;100438.52;110086;1239;60608;-67
2023/04/11 11:24:53;;;;;;;21.00;12.10;;;;;;;9.39;100.00;100432.13;110095;1235;72981;-67